createdAt,value
2023-01-02T00:01:42.266Z,4.70
2023-01-02T00:04:10.554Z,3.80
2023-01-02T00:06:40.023Z,6.80
2023-01-02T00:09:10.156Z,5.18
2023-01-02T00:11:38.468Z,4.35
2023-01-02T00:14:07.254Z,4.00
2023-01-02T00:16:35.709Z,4.18
2023-01-02T00:19:04.165Z,7.18
2023-01-02T00:21:32.547Z,3.58
2023-01-02T00:24:00.899Z,4.15
2023-01-02T00:26:31.457Z,9.25
2023-01-02T00:28:59.886Z,5.97
2023-01-02T00:31:28.257Z,5.05
2023-01-02T00:33:56.672Z,3.75
2023-01-02T00:36:26.641Z,4.88
2023-01-02T00:38:56.663Z,5.63
2023-01-02T00:41:25.442Z,4.10
2023-01-02T00:43:55.316Z,4.60
2023-01-02T00:46:23.651Z,4.90
2023-01-02T00:48:52.142Z,3.47
2023-01-02T00:51:20.527Z,5.22
2023-01-02T00:53:48.890Z,4.53
2023-01-02T00:56:17.277Z,5.47
2023-01-02T00:58:45.847Z,5.13
2023-01-02T01:01:15.700Z,4.70
2023-01-02T01:03:44.320Z,4.85
2023-01-02T01:06:13.027Z,5.00
2023-01-02T01:08:41.716Z,5.50
2023-01-02T01:11:12.188Z,5.85
2023-01-02T01:13:41.123Z,3.40
2023-01-02T01:16:11.813Z,6.20
2023-01-02T01:18:42.001Z,5.72
2023-01-02T01:21:11.488Z,4.35
2023-01-02T01:23:40.384Z,6.63
2023-01-02T01:26:10.908Z,3.85
2023-01-02T01:28:39.889Z,4.45
2023-01-02T01:31:10.355Z,6.63
2023-01-02T01:33:39.398Z,5.63
2023-01-02T01:36:11.873Z,3.95
2023-01-02T01:38:40.288Z,3.95
2023-01-02T01:41:09.715Z,4.63
2023-01-02T01:43:39.665Z,4.22
2023-01-02T01:46:11.305Z,3.20
2023-01-02T01:48:40.158Z,3.47
2023-01-02T01:51:09.996Z,5.15
2023-01-02T01:53:39.792Z,4.22
2023-01-02T01:56:09.883Z,5.05
2023-01-02T01:58:43.315Z,3.72
2023-01-02T02:01:14.030Z,4.60
2023-01-02T02:03:45.069Z,5.03
2023-01-02T02:06:14.977Z,5.32
2023-01-02T02:08:49.311Z,4.43
2023-01-02T02:11:19.253Z,5.97
2023-01-02T02:13:48.232Z,3.22
2023-01-02T02:16:26.571Z,4.80
2023-01-02T02:19:18.972Z,4.32
2023-01-02T02:22:07.281Z,3.97
2023-01-02T02:25:10.932Z,6.03
2023-01-02T02:28:01.271Z,4.37
2023-01-02T02:30:36.155Z,5.43
2023-01-02T02:33:28.829Z,4.20
2023-01-02T02:36:05.423Z,4.88
2023-01-02T02:38:48.587Z,5.32
2023-01-02T02:41:29.782Z,3.10
2023-01-02T02:44:06.797Z,3.47
2023-01-02T02:46:43.575Z,5.22
2023-01-02T02:49:23.052Z,3.08
2023-01-02T02:51:58.948Z,5.55
2023-01-02T02:54:35.086Z,4.25
2023-01-02T02:57:05.125Z,4.80
2023-01-02T02:59:35.359Z,4.07
2023-01-02T03:02:05.575Z,2.90
2023-01-02T03:04:34.099Z,4.93
2023-01-02T03:07:16.739Z,3.95
2023-01-02T03:09:58.566Z,4.25
2023-01-02T03:12:36.466Z,3.47
2023-01-02T03:15:16.217Z,4.07
2023-01-02T03:18:00.063Z,4.00
2023-01-02T03:20:32.668Z,3.63
2023-01-02T03:23:05.952Z,3.83
2023-01-02T03:25:35.850Z,3.00
2023-01-02T03:28:09.147Z,4.28
2023-01-02T03:30:41.309Z,3.88
2023-01-02T03:33:18.114Z,3.97
2023-01-02T03:35:50.655Z,4.55
2023-01-02T03:38:25.220Z,6.18
2023-01-02T03:41:01.757Z,4.13
2023-01-02T03:43:33.463Z,3.00
2023-01-02T03:46:10.189Z,4.57
2023-01-02T03:48:44.452Z,5.78
2023-01-02T03:51:13.476Z,4.65
2023-01-02T03:53:42.053Z,8.80
2023-01-02T03:56:18.186Z,6.85
2023-01-02T03:58:51.959Z,19.00
2023-01-02T04:04:01.623Z,5.82
2023-01-02T04:06:35.373Z,7.20
2023-01-02T04:11:38.459Z,3.95
2023-01-02T04:14:16.710Z,4.78
2023-01-02T04:16:47.487Z,3.35
2023-01-02T04:19:22.833Z,5.30
2023-01-02T04:21:54.479Z,4.50
2023-01-02T04:24:28.113Z,4.97
2023-01-02T04:27:01.656Z,3.55
2023-01-02T04:29:30.961Z,3.20
2023-01-02T04:32:05.219Z,7.05
2023-01-02T04:34:38.780Z,3.97
2023-01-02T04:37:07.270Z,4.47
2023-01-02T04:39:38.762Z,5.82
2023-01-02T04:42:07.214Z,4.10
2023-01-02T04:44:35.557Z,2.67
2023-01-02T04:47:03.870Z,7.88
2023-01-02T04:49:32.199Z,3.05
2023-01-02T04:52:01.978Z,4.78
2023-01-02T04:54:30.368Z,3.97
2023-01-02T04:56:58.720Z,4.15
2023-01-02T04:59:27.079Z,3.50
2023-01-02T05:01:55.471Z,3.78
2023-01-02T05:04:23.871Z,3.08
2023-01-02T05:06:52.232Z,3.70
2023-01-02T05:09:22.025Z,3.30
2023-01-02T05:11:50.366Z,4.30
2023-01-02T05:14:18.738Z,4.70
2023-01-02T05:16:48.426Z,3.40
2023-01-02T05:19:16.870Z,3.97
2023-01-02T05:22:02.369Z,3.58
2023-01-02T05:24:32.146Z,3.53
2023-01-02T05:27:00.469Z,3.47
2023-01-02T05:29:29.015Z,5.32
2023-01-02T05:31:57.415Z,3.92
2023-01-02T05:34:25.711Z,5.57
2023-01-02T05:36:54.161Z,3.30
2023-01-02T05:39:22.436Z,2.92
2023-01-02T05:41:52.199Z,4.07
2023-01-02T05:44:20.478Z,5.75
2023-01-02T05:46:48.877Z,4.53
2023-01-02T05:49:17.266Z,3.45
2023-01-02T05:51:45.675Z,3.78
2023-01-02T05:54:14.095Z,5.30
2023-01-02T05:56:42.351Z,5.78
2023-01-02T05:59:12.135Z,3.45
2023-01-02T06:01:40.505Z,4.05
2023-01-02T06:04:09.070Z,4.10
2023-01-02T06:06:39.663Z,3.38
2023-01-02T06:09:09.520Z,4.20
2023-01-02T06:11:38.500Z,4.05
2023-01-02T06:14:06.766Z,4.30
2023-01-02T06:16:36.814Z,4.95
2023-01-02T06:19:05.287Z,3.95
2023-01-02T06:21:33.737Z,5.35
2023-01-02T06:24:02.219Z,3.97
2023-01-02T06:26:34.969Z,5.15
2023-01-02T06:29:04.931Z,5.18
2023-01-02T06:31:33.876Z,6.03
2023-01-02T06:34:04.602Z,3.78
2023-01-02T06:36:34.420Z,4.25
2023-01-02T06:39:02.878Z,3.17
2023-01-02T06:41:31.469Z,3.38
2023-01-02T06:43:59.833Z,4.38
2023-01-02T06:46:28.164Z,6.53
2023-01-02T06:48:56.838Z,5.70
2023-01-02T06:51:26.613Z,4.88
2023-01-02T06:53:55.742Z,5.85
2023-01-02T06:56:24.539Z,8.13
2023-01-02T06:58:52.857Z,3.88
2023-01-02T07:01:23.016Z,6.00
2023-01-02T07:03:51.737Z,5.95
2023-01-02T07:06:22.043Z,3.95
2023-01-02T07:08:51.932Z,4.13
2023-01-02T07:11:22.419Z,4.50
2023-01-02T07:13:52.608Z,4.78
2023-01-02T07:16:23.054Z,4.03
2023-01-02T07:18:52.944Z,5.15
2023-01-02T07:21:21.720Z,4.72
2023-01-02T07:23:51.671Z,8.82
2023-01-02T07:26:20.253Z,8.52
2023-01-02T07:28:49.148Z,5.03
2023-01-02T07:31:19.346Z,5.40
2023-01-02T07:33:48.232Z,6.68
2023-01-02T07:36:19.128Z,3.08
2023-01-02T07:38:53.480Z,6.10
2023-01-02T07:41:23.836Z,3.97
2023-01-02T07:43:55.210Z,7.43
2023-01-02T07:46:24.614Z,5.13
2023-01-02T07:48:53.030Z,5.20
2023-01-02T07:51:27.020Z,4.18
2023-01-02T07:53:57.390Z,4.35
2023-01-02T07:56:26.016Z,4.53
2023-01-02T07:58:54.333Z,7.45
2023-01-02T08:01:22.983Z,10.27
2023-01-02T08:03:51.506Z,3.30
2023-01-02T08:06:20.297Z,4.88
2023-01-02T08:08:49.165Z,6.30
2023-01-02T08:11:21.555Z,3.03
2023-01-02T08:13:50.275Z,3.65
2023-01-02T08:16:20.781Z,5.38
2023-01-02T08:18:51.593Z,3.22
2023-01-02T08:21:20.207Z,4.53
2023-01-02T08:23:48.563Z,3.97
2023-01-02T08:26:18.534Z,3.10
2023-01-02T08:28:46.932Z,6.13
2023-01-02T08:31:16.943Z,4.68
2023-01-02T08:33:45.444Z,8.27
2023-01-02T08:36:14.776Z,4.07
2023-01-02T08:38:43.174Z,4.13
2023-01-02T08:41:11.675Z,7.40
2023-01-02T08:43:41.340Z,5.43
2023-01-02T08:46:11.368Z,6.97
2023-01-02T08:48:39.852Z,7.72
2023-01-02T08:51:08.574Z,5.35
2023-01-02T08:53:36.955Z,12.10
2023-01-02T08:56:23.478Z,4.68
2023-01-02T08:58:55.385Z,4.82
2023-01-02T09:01:25.196Z,6.97
2023-01-02T09:03:54.152Z,6.53
2023-01-02T09:06:23.286Z,2.83
2023-01-02T09:08:53.028Z,3.85
2023-01-02T09:11:23.882Z,5.35
2023-01-02T09:13:53.956Z,6.47
2023-01-02T09:16:23.325Z,4.43
2023-01-02T09:18:52.104Z,6.32
2023-01-02T09:21:21.372Z,9.20
2023-01-02T09:23:49.729Z,7.35
2023-01-02T09:26:18.466Z,6.05
2023-01-02T09:28:46.975Z,5.22
2023-01-02T09:31:18.150Z,6.25
2023-01-02T09:33:47.858Z,6.20
2023-01-02T09:36:18.386Z,6.80
2023-01-02T09:38:52.193Z,4.10
2023-01-02T09:41:34.538Z,5.15
2023-01-02T09:44:06.780Z,5.72
2023-01-02T09:46:45.670Z,4.05
2023-01-02T09:49:15.939Z,5.05
2023-01-02T09:51:45.400Z,7.53
2023-01-02T09:54:19.417Z,7.60
2023-01-02T09:56:51.535Z,4.07
2023-01-02T09:59:27.913Z,4.03
2023-01-02T10:02:11.613Z,3.47
2023-01-02T10:05:04.878Z,7.38
2023-01-02T10:07:42.885Z,3.35
2023-01-02T10:10:18.171Z,5.53
2023-01-02T10:13:00.609Z,7.25
2023-01-02T10:15:30.818Z,5.18
2023-01-02T10:18:10.716Z,5.80
2023-01-02T10:20:42.266Z,6.53
2023-01-02T10:23:14.828Z,6.78
2023-01-02T10:25:52.612Z,9.27
2023-01-02T10:28:31.923Z,6.35
2023-01-02T10:31:07.543Z,6.10
2023-01-02T10:33:46.289Z,7.97
2023-01-02T10:36:25.041Z,8.30
2023-01-02T10:38:54.640Z,8.20
2023-01-02T10:41:23.088Z,8.05
2023-01-02T10:43:55.819Z,7.03
2023-01-02T10:46:24.206Z,7.22
2023-01-02T10:48:54.094Z,7.82
2023-01-02T10:51:22.422Z,5.25
2023-01-02T10:54:01.838Z,5.97
2023-01-02T10:56:33.179Z,8.60
2023-01-02T10:59:02.478Z,6.93
2023-01-02T11:01:31.695Z,7.85
2023-01-02T11:04:21.850Z,8.65
2023-01-02T11:06:56.823Z,8.32
2023-01-02T11:09:27.239Z,6.72
2023-01-02T11:11:57.251Z,7.63
2023-01-02T11:14:30.936Z,5.25
2023-01-02T11:19:41.621Z,6.53
2023-01-02T11:22:11.057Z,12.05
2023-01-02T11:24:59.618Z,7.30
2023-01-02T11:27:32.336Z,6.80
2023-01-02T11:30:01.927Z,6.82
2023-01-02T11:32:38.792Z,9.13
2023-01-02T11:35:33.636Z,7.90
2023-01-02T11:38:03.251Z,6.00
2023-01-02T11:40:33.360Z,8.18
2023-01-02T11:43:26.026Z,6.30
2023-01-02T11:45:55.339Z,6.07
2023-01-02T11:48:24.938Z,5.78
2023-01-02T11:50:54.997Z,7.55
2023-01-02T11:53:28.728Z,8.27
2023-01-02T11:58:35.949Z,7.00
2023-01-02T12:01:11.387Z,7.72
2023-01-02T12:03:41.128Z,7.40
2023-01-02T12:06:18.287Z,7.80
2023-01-02T12:09:03.976Z,4.70
2023-01-02T12:11:50.436Z,4.38
2023-01-02T12:14:21.893Z,8.20
2023-01-02T12:16:57.238Z,9.23
2023-01-02T12:20:03.393Z,6.78
2023-01-02T12:22:56.423Z,6.90
2023-01-02T12:25:47.382Z,6.47
2023-01-02T12:28:35.114Z,7.47
2023-01-02T12:31:21.057Z,10.00
2023-01-02T12:33:58.300Z,6.63
2023-01-02T12:36:36.032Z,7.95
2023-01-02T12:39:24.314Z,8.02
2023-01-02T12:42:02.578Z,8.73
2023-01-02T12:44:49.858Z,8.90
2023-01-02T12:47:43.862Z,3.95
2023-01-02T12:50:26.153Z,8.38
2023-01-02T12:53:05.571Z,8.95
2023-01-02T12:55:47.505Z,6.68
2023-01-02T12:58:28.515Z,9.07
2023-01-02T13:01:08.973Z,4.43
2023-01-02T13:03:46.739Z,11.27
2023-01-02T13:06:45.967Z,7.00
2023-01-02T13:09:14.608Z,7.35
2023-01-02T13:11:57.145Z,6.57
2023-01-02T13:14:32.535Z,9.98
2023-01-02T13:17:12.727Z,8.80
2023-01-02T13:19:48.241Z,8.30
2023-01-02T13:22:28.715Z,8.25
2023-01-02T13:24:59.280Z,11.55
2023-01-02T13:27:29.633Z,9.60
2023-01-02T13:29:58.151Z,7.38
2023-01-02T13:32:31.969Z,6.30
2023-01-02T13:35:03.988Z,8.88
2023-01-02T13:37:32.742Z,8.65
2023-01-02T13:40:03.553Z,8.10
2023-01-02T13:42:52.878Z,6.88
2023-01-02T13:45:34.292Z,7.57
2023-01-02T13:48:06.648Z,10.23
2023-01-02T13:50:37.067Z,5.97
2023-01-02T13:53:09.265Z,6.47
2023-01-02T13:56:05.643Z,5.78
2023-01-02T13:58:50.121Z,4.90
2023-01-02T14:01:42.422Z,6.78
2023-01-02T14:04:30.815Z,7.72
2023-01-02T14:07:40.767Z,9.13
2023-01-02T14:10:34.730Z,7.18
2023-01-02T14:13:20.787Z,4.78
2023-01-02T14:16:22.319Z,6.65
2023-01-02T14:19:18.908Z,5.47
2023-01-02T14:21:50.374Z,5.70
2023-01-02T14:24:29.923Z,11.55
2023-01-02T14:27:01.949Z,5.60
2023-01-02T14:29:31.866Z,4.97
2023-01-02T14:32:07.005Z,7.88
2023-01-02T14:34:36.246Z,4.93
2023-01-02T14:37:04.808Z,6.53
2023-01-02T14:39:37.045Z,6.45
2023-01-02T14:42:43.029Z,5.53
2023-01-02T14:45:18.970Z,4.13
2023-01-02T14:47:53.412Z,8.88
2023-01-02T14:50:25.238Z,5.53
2023-01-02T14:53:01.459Z,6.85
2023-01-02T14:55:41.023Z,5.22
2023-01-02T14:58:18.856Z,7.22
2023-01-02T15:00:50.016Z,5.95
2023-01-02T15:03:27.338Z,6.57
2023-01-02T15:06:00.799Z,7.00
2023-01-02T15:08:37.144Z,4.82
2023-01-02T15:11:34.048Z,8.48
2023-01-02T15:14:06.328Z,5.47
2023-01-02T15:16:44.428Z,6.30
2023-01-02T15:19:24.412Z,7.10
2023-01-02T15:21:54.952Z,5.82
2023-01-02T15:24:27.080Z,5.35
2023-01-02T15:26:55.783Z,7.47
2023-01-02T15:29:27.473Z,4.93
2023-01-02T15:31:57.234Z,4.60
2023-01-02T15:34:30.361Z,4.47
2023-01-02T15:37:03.724Z,5.18
2023-01-02T15:39:38.012Z,3.35
2023-01-02T15:42:29.576Z,4.18
2023-01-02T15:45:10.418Z,4.80
2023-01-02T15:47:39.948Z,8.00
2023-01-02T15:50:16.704Z,5.07
2023-01-02T15:52:47.871Z,5.18
2023-01-02T15:55:18.209Z,7.25
2023-01-02T15:57:53.835Z,5.53
2023-01-02T16:00:37.671Z,4.55
2023-01-02T16:03:06.448Z,4.07
2023-01-02T16:05:49.827Z,5.78
2023-01-02T16:08:21.352Z,3.63
2023-01-02T16:10:51.495Z,4.28
2023-01-02T16:13:41.097Z,5.57
2023-01-02T16:16:16.619Z,7.47
2023-01-02T16:18:49.405Z,5.30
2023-01-02T16:21:19.891Z,3.83
2023-01-02T16:23:52.852Z,4.45
2023-01-02T16:26:25.123Z,6.20
2023-01-02T16:28:53.541Z,4.97
2023-01-02T16:31:23.741Z,4.30
2023-01-02T16:33:52.441Z,6.78
2023-01-02T16:36:26.545Z,3.80
2023-01-02T16:38:58.946Z,6.45
2023-01-02T16:42:17.029Z,6.00
2023-01-02T16:44:55.703Z,5.20
2023-01-02T16:47:25.109Z,5.35
2023-01-02T16:49:53.589Z,6.50
2023-01-02T16:52:23.821Z,5.38
2023-01-02T16:54:54.225Z,4.63
2023-01-02T16:57:24.451Z,7.03
2023-01-02T16:59:53.042Z,5.47
2023-01-02T17:02:21.475Z,7.00
2023-01-02T17:04:49.854Z,6.93
2023-01-02T17:07:22.092Z,6.18
2023-01-02T17:09:52.206Z,5.88
2023-01-02T17:12:20.539Z,7.85
2023-01-02T17:14:48.830Z,4.05
2023-01-02T17:17:17.193Z,4.18
2023-01-02T17:19:45.547Z,3.50
2023-01-02T17:22:13.977Z,3.88
2023-01-02T17:24:43.356Z,4.40
2023-01-02T17:27:13.444Z,9.45
2023-01-02T17:29:41.996Z,6.57
2023-01-02T17:32:10.394Z,5.82
2023-01-02T17:34:38.746Z,7.63
2023-01-02T17:37:07.196Z,9.02
2023-01-02T17:39:35.469Z,6.28
2023-01-02T17:42:03.826Z,5.10
2023-01-02T17:44:33.596Z,5.43
2023-01-02T17:47:30.929Z,6.72
2023-01-02T17:49:50.619Z,5.88
2023-01-02T17:52:19.808Z,6.47
2023-01-02T17:54:54.747Z,13.10
2023-01-02T17:57:25.528Z,7.22
2023-01-02T17:59:55.524Z,5.78
2023-01-02T18:02:23.932Z,3.00
2023-01-02T18:04:55.127Z,5.68
2023-01-02T18:07:23.811Z,4.82
2023-01-02T18:10:07.582Z,5.65
2023-01-02T18:12:38.409Z,5.80
2023-01-02T18:15:15.080Z,4.97
2023-01-02T18:17:44.513Z,3.55
2023-01-02T18:20:15.228Z,5.10
2023-01-02T18:22:49.017Z,2.10
2023-01-02T18:25:20.981Z,1.58
2023-01-02T18:27:49.852Z,0.70
2023-01-02T18:30:24.033Z,0.68
2023-01-02T18:33:01.958Z,0.85
2023-01-02T18:38:31.409Z,0.40
2023-01-02T18:40:59.848Z,1.77
2023-01-02T18:43:30.226Z,1.25
2023-01-02T18:46:01.930Z,0.50
2023-01-02T18:48:31.552Z,1.55
2023-01-02T18:51:01.583Z,3.72
2023-01-02T18:53:38.922Z,0.75
2023-01-02T18:56:18.655Z,0.60
2023-01-02T18:58:51.774Z,1.55
2023-01-02T19:01:36.032Z,1.05
2023-01-02T19:04:24.493Z,0.68
2023-01-02T19:06:58.626Z,1.08
2023-01-02T19:09:32.585Z,2.00
2023-01-02T19:12:37.068Z,0.85
2023-01-02T19:15:33.750Z,0.60
2023-01-02T19:18:35.921Z,0.55
2023-01-02T19:21:16.716Z,0.77
2023-01-02T19:23:54.788Z,0.20
2023-01-02T19:26:28.109Z,1.08
2023-01-02T19:29:04.068Z,0.55
2023-01-02T19:31:45.022Z,1.38
2023-01-02T19:34:28.844Z,0.25
2023-01-02T19:37:11.694Z,0.10
2023-01-02T19:39:47.254Z,0.65
2023-01-02T19:42:24.024Z,0.17
2023-01-02T19:44:55.325Z,1.40
2023-01-02T19:47:29.559Z,0.93
2023-01-02T19:50:01.782Z,1.55
2023-01-02T19:52:32.260Z,0.50
2023-01-02T19:55:02.925Z,0.50
2023-01-02T19:57:32.766Z,0.45
2023-01-02T20:00:02.753Z,1.23
2023-01-02T20:02:32.658Z,1.42
2023-01-02T20:05:04.264Z,2.83
2023-01-02T20:07:34.702Z,1.85
2023-01-02T20:10:04.480Z,0.85
2023-01-02T20:12:40.905Z,0.70
2023-01-02T20:15:15.418Z,0.30
2023-01-02T20:17:46.154Z,0.40
2023-01-02T20:20:19.431Z,0.77
2023-01-02T20:22:52.272Z,0.70
2023-01-02T20:25:24.845Z,0.50
2023-01-02T20:27:55.366Z,0.68
2023-01-02T20:30:25.681Z,1.00
2023-01-02T20:32:56.543Z,0.30
2023-01-02T20:35:27.769Z,0.50
2023-01-02T20:37:57.693Z,0.47
2023-01-02T20:40:28.972Z,3.30
2023-01-02T20:42:59.265Z,2.90
2023-01-02T20:45:29.211Z,0.50
2023-01-02T20:47:58.983Z,0.50
2023-01-02T20:50:30.196Z,0.35
2023-01-02T20:52:58.914Z,0.10
2023-01-02T20:55:27.276Z,0.43
2023-01-02T20:57:56.090Z,0.10
2023-01-02T21:00:24.559Z,0.80
2023-01-02T21:02:53.132Z,0.10
2023-01-02T21:05:21.844Z,0.20
2023-01-02T21:07:51.779Z,0.90
2023-01-02T21:10:20.277Z,0.30
2023-01-02T21:13:06.320Z,0.70
2023-01-02T21:15:45.515Z,1.02
2023-01-02T21:18:18.606Z,0.95
2023-01-02T21:20:50.118Z,0.50
2023-01-02T21:23:22.196Z,0.20
2023-01-02T21:25:52.967Z,0.70
2023-01-02T21:28:24.259Z,0.30
2023-01-02T21:30:55.233Z,1.65
2023-01-02T21:33:26.378Z,0.63
2023-01-02T21:35:57.918Z,0.70
2023-01-02T21:38:29.958Z,1.30
2023-01-02T21:41:22.228Z,0.73
2023-01-02T21:43:52.025Z,0.98
2023-01-02T21:46:21.822Z,0.20
2023-01-02T21:48:51.692Z,1.42
2023-01-02T21:51:21.135Z,0.70
2023-01-02T21:53:51.559Z,0.43
2023-01-02T21:56:21.174Z,1.05
2023-01-02T21:58:50.990Z,1.92
2023-01-02T22:01:21.319Z,0.65
2023-01-02T22:03:51.599Z,0.50
2023-01-02T22:06:21.575Z,1.13
2023-01-02T22:08:52.863Z,0.30
2023-01-02T22:11:39.745Z,3.55
2023-01-02T22:14:11.677Z,0.60
2023-01-02T22:16:40.142Z,0.50
2023-01-02T22:19:08.528Z,0.80
2023-01-02T22:21:36.960Z,0.93
2023-01-02T22:24:07.404Z,0.68
2023-01-02T22:26:37.365Z,1.13
2023-01-02T22:29:06.725Z,0.95
2023-01-02T22:31:36.206Z,1.23
2023-01-02T22:34:05.506Z,0.30
2023-01-02T22:36:33.864Z,1.40
2023-01-02T22:39:27.195Z,2.30
2023-01-02T22:42:41.344Z,1.00
2023-01-02T22:45:05.475Z,0.20
2023-01-02T22:47:37.441Z,1.63
2023-01-02T22:50:12.135Z,0.30
2023-01-02T22:52:40.925Z,1.38
2023-01-02T22:55:17.285Z,1.02
2023-01-02T22:57:51.759Z,1.17
2023-01-02T23:00:23.520Z,0.90
2023-01-02T23:02:52.029Z,0.95
2023-01-02T23:05:22.563Z,0.50
2023-01-02T23:07:51.020Z,1.00
2023-01-02T23:10:19.506Z,0.93
2023-01-02T23:12:49.277Z,1.73
2023-01-02T23:15:17.631Z,0.70
2023-01-02T23:18:03.090Z,0.38
2023-01-02T23:20:31.517Z,2.10
2023-01-02T23:22:59.837Z,1.45
2023-01-02T23:25:28.640Z,1.80
2023-01-02T23:27:58.475Z,1.27
2023-01-02T23:30:26.897Z,1.35
2023-01-02T23:32:55.361Z,1.40
2023-01-02T23:35:23.909Z,1.42
2023-01-02T23:37:52.393Z,2.38
2023-01-02T23:40:20.764Z,0.40
2023-01-02T23:42:49.097Z,0.75
2023-01-02T23:45:19.041Z,1.52
2023-01-02T23:47:47.448Z,1.95
2023-01-02T23:50:16.671Z,1.10
2023-01-02T23:52:45.153Z,1.45
2023-01-02T23:55:13.488Z,1.38
2023-01-02T23:57:41.800Z,2.05
